createdAt,value
2019-03-13T00:01:17.355Z,93.50
2019-03-13T00:03:47.780Z,93.40
2019-03-13T00:06:16.505Z,93.80
2019-03-13T00:08:45.324Z,93.50
2019-03-13T00:11:14.175Z,93.50
2019-03-13T00:13:44.519Z,93.60
2019-03-13T00:16:13.466Z,93.30
2019-03-13T00:18:42.299Z,93.50
2019-03-13T00:21:11.133Z,92.90
2019-03-13T00:23:39.943Z,93.10
2019-03-13T00:26:08.786Z,93.10
2019-03-13T00:28:37.648Z,92.90
2019-03-13T00:31:06.455Z,92.90
2019-03-13T00:33:35.304Z,93.10
2019-03-13T00:36:04.123Z,93.00
2019-03-13T00:38:33.229Z,93.40
2019-03-13T00:41:02.399Z,93.60
2019-03-13T00:43:31.258Z,93.60
2019-03-13T00:46:00.160Z,93.60
2019-03-13T00:48:28.968Z,93.90
2019-03-13T00:50:58.382Z,93.80
2019-03-13T00:53:29.152Z,94.00
2019-03-13T00:55:57.990Z,94.10
2019-03-13T00:58:26.803Z,94.30
2019-03-13T01:01:09.332Z,94.30
2019-03-13T01:03:42.463Z,94.30
2019-03-13T01:06:15.895Z,94.50
2019-03-13T01:08:44.753Z,94.20
2019-03-13T01:11:13.646Z,94.30
2019-03-13T01:13:44.345Z,94.40
2019-03-13T01:16:13.254Z,94.40
2019-03-13T01:18:42.060Z,94.60
2019-03-13T01:21:10.894Z,94.60
2019-03-13T01:23:40.571Z,94.70
2019-03-13T01:26:09.411Z,95.00
2019-03-13T01:28:38.277Z,95.00
2019-03-13T01:31:29.186Z,95.30
2019-03-13T01:34:11.516Z,95.50
2019-03-13T01:36:40.670Z,95.60
2019-03-13T01:39:09.533Z,95.90
2019-03-13T01:41:38.346Z,95.90
2019-03-13T01:44:07.180Z,96.10
2019-03-13T01:46:36.032Z,96.10
2019-03-13T01:49:04.957Z,96.10
2019-03-13T01:51:33.799Z,96.20
2019-03-13T01:54:02.618Z,96.30
2019-03-13T01:56:31.513Z,96.30
2019-03-13T01:59:02.163Z,96.20
2019-03-13T02:01:30.980Z,96.10
2019-03-13T02:03:59.792Z,96.00
2019-03-13T02:06:28.595Z,95.90
2019-03-13T02:08:57.439Z,95.80
2019-03-13T02:11:26.303Z,95.70
2019-03-13T02:13:55.114Z,95.80
2019-03-13T02:16:23.981Z,95.80
2019-03-13T02:18:52.786Z,95.90
2019-03-13T02:21:21.614Z,95.90
2019-03-13T02:23:50.356Z,96.00
2019-03-13T02:26:20.191Z,96.00
2019-03-13T02:28:49.020Z,95.80
2019-03-13T02:31:17.865Z,95.70
2019-03-13T02:33:46.676Z,95.70
2019-03-13T02:36:15.499Z,95.70
2019-03-13T02:38:44.710Z,95.50
2019-03-13T02:41:13.515Z,95.20
2019-03-13T02:43:42.362Z,95.10
2019-03-13T02:46:11.467Z,95.20
2019-03-13T02:48:40.327Z,95.40
2019-03-13T02:51:09.555Z,95.30
2019-03-13T02:53:38.605Z,95.40
2019-03-13T02:56:09.752Z,95.50
2019-03-13T02:58:38.571Z,95.60
2019-03-13T03:01:17.711Z,95.90
2019-03-13T03:03:48.082Z,96.10
2019-03-13T03:06:17.223Z,96.50
2019-03-13T03:08:46.084Z,96.70
2019-03-13T03:11:15.033Z,96.80
2019-03-13T03:13:43.859Z,96.70
2019-03-13T03:16:12.676Z,96.40
2019-03-13T03:18:42.357Z,96.60
2019-03-13T03:21:11.173Z,96.80
2019-03-13T03:23:40.481Z,97.30
2019-03-13T03:26:10.481Z,97.20
2019-03-13T03:28:39.298Z,97.20
2019-03-13T03:31:08.288Z,97.30
2019-03-13T03:33:37.126Z,97.70
2019-03-13T03:36:05.962Z,97.90
2019-03-13T03:38:35.726Z,98.30
2019-03-13T03:41:04.533Z,98.20
2019-03-13T03:43:40.263Z,98.30
2019-03-13T03:46:03.818Z,98.20
2019-03-13T03:48:32.543Z,98.20
2019-03-13T03:51:02.658Z,98.20
2019-03-13T03:53:31.431Z,98.10
2019-03-13T03:56:00.284Z,97.70
2019-03-13T03:58:29.993Z,97.70
2019-03-13T04:00:58.998Z,97.80
2019-03-13T04:03:27.817Z,97.60
2019-03-13T04:05:57.431Z,97.60
2019-03-13T04:08:26.278Z,97.70
2019-03-13T04:10:55.068Z,97.70
2019-03-13T04:13:23.896Z,97.70
2019-03-13T04:15:52.679Z,97.50
2019-03-13T04:18:21.528Z,97.50
2019-03-13T04:20:50.376Z,97.50
2019-03-13T04:23:19.191Z,97.70
2019-03-13T04:25:48.025Z,97.10
2019-03-13T04:28:16.833Z,97.10
2019-03-13T04:30:45.658Z,97.30
2019-03-13T04:33:14.814Z,97.40
2019-03-13T04:35:43.637Z,97.60
2019-03-13T04:38:12.520Z,97.60
2019-03-13T04:40:43.282Z,97.40
2019-03-13T04:43:11.873Z,97.20
2019-03-13T04:45:40.651Z,97.30
2019-03-13T04:48:09.500Z,97.30
2019-03-13T04:50:38.299Z,97.50
2019-03-13T04:53:07.241Z,97.50
2019-03-13T04:55:36.066Z,97.50
2019-03-13T04:58:04.938Z,97.50
2019-03-13T05:00:34.202Z,97.70
2019-03-13T05:03:03.029Z,97.70
2019-03-13T05:05:45.596Z,97.90
2019-03-13T05:08:21.801Z,97.80
2019-03-13T05:10:50.629Z,97.80
2019-03-13T05:13:19.472Z,97.90
2019-03-13T05:15:48.335Z,97.60
2019-03-13T05:18:17.439Z,97.70
2019-03-13T05:20:50.217Z,97.50
2019-03-13T05:23:18.727Z,97.50
2019-03-13T05:25:47.568Z,97.50
2019-03-13T05:28:16.784Z,97.50
2019-03-13T05:30:45.639Z,97.40
2019-03-13T05:33:14.874Z,97.10
2019-03-13T05:35:45.434Z,97.30
2019-03-13T05:38:14.198Z,97.70
2019-03-13T05:40:43.033Z,97.40
2019-03-13T05:43:11.854Z,97.20
2019-03-13T05:45:41.080Z,97.10
2019-03-13T05:48:09.913Z,97.10
2019-03-13T05:50:40.679Z,97.30
2019-03-13T05:53:09.246Z,97.50
2019-03-13T05:55:38.051Z,97.50
2019-03-13T05:58:06.900Z,97.50
2019-03-13T06:00:35.705Z,97.40
2019-03-13T06:03:04.591Z,97.40
2019-03-13T06:05:34.410Z,97.40
2019-03-13T06:08:03.618Z,97.40
2019-03-13T06:10:32.424Z,97.30
2019-03-13T06:13:02.168Z,96.70
2019-03-13T06:15:30.998Z,96.60
2019-03-13T06:18:00.198Z,96.40
2019-03-13T06:20:30.350Z,96.10
2019-03-13T06:22:59.204Z,95.60
2019-03-13T06:25:27.972Z,96.00
2019-03-13T06:27:56.776Z,95.80
2019-03-13T06:30:25.921Z,96.40
2019-03-13T06:32:54.749Z,96.10
2019-03-13T06:35:24.078Z,95.80
2019-03-13T06:37:53.035Z,95.60
2019-03-13T06:40:22.298Z,95.60
2019-03-13T06:42:51.111Z,95.70
2019-03-13T06:45:23.036Z,95.50
2019-03-13T06:47:50.435Z,95.30
2019-03-13T06:50:20.723Z,95.10
2019-03-13T06:52:49.571Z,94.70
2019-03-13T06:55:18.377Z,95.00
2019-03-13T06:57:47.244Z,94.70
2019-03-13T07:00:31.098Z,95.00
2019-03-13T07:03:01.878Z,95.00
2019-03-13T07:05:32.916Z,95.30
2019-03-13T07:08:05.886Z,95.40
2019-03-13T07:10:42.042Z,95.40
2019-03-13T07:13:12.426Z,94.90
2019-03-13T07:15:45.689Z,94.30
2019-03-13T07:18:18.882Z,93.50
2019-03-13T07:20:49.318Z,93.70
2019-03-13T07:23:28.735Z,93.90
2019-03-13T07:26:07.631Z,94.40
2019-03-13T07:28:46.788Z,94.00
2019-03-13T07:31:26.235Z,93.80
2019-03-13T07:33:59.410Z,93.40
2019-03-13T07:36:32.539Z,93.40
2019-03-13T07:39:08.821Z,93.80
2019-03-13T07:41:54.350Z,93.90
2019-03-13T07:44:30.896Z,93.50
2019-03-13T07:47:07.333Z,93.80
2019-03-13T07:49:44.006Z,94.20
2019-03-13T07:52:22.812Z,94.00
2019-03-13T07:55:09.271Z,93.90
2019-03-13T07:57:45.605Z,94.00
2019-03-13T08:00:26.333Z,92.10
2019-03-13T08:02:57.325Z,91.60
2019-03-13T08:05:45.762Z,92.00
2019-03-13T08:08:34.186Z,91.80
2019-03-13T08:11:07.035Z,92.30
2019-03-13T08:13:43.170Z,92.30
2019-03-13T08:16:13.582Z,92.10
2019-03-13T08:18:45.120Z,92.40
2019-03-13T08:21:24.833Z,92.40
2019-03-13T08:23:55.212Z,92.50
2019-03-13T08:26:25.600Z,92.50
2019-03-13T08:29:05.044Z,92.50
2019-03-13T08:31:35.453Z,92.60
2019-03-13T08:34:05.867Z,92.40
2019-03-13T08:36:40.666Z,92.60
2019-03-13T08:39:27.560Z,92.70
2019-03-13T08:42:14.243Z,92.30
2019-03-13T08:44:47.395Z,91.50
2019-03-13T08:47:17.770Z,91.70
2019-03-13T08:49:50.631Z,91.60
2019-03-13T08:52:27.382Z,90.40
2019-03-13T08:55:00.676Z,91.00
2019-03-13T08:57:42.135Z,91.50
2019-03-13T09:00:16.831Z,91.90
2019-03-13T09:03:03.424Z,92.30
2019-03-13T09:05:42.716Z,92.80
2019-03-13T09:08:23.819Z,93.10
2019-03-13T09:11:10.323Z,93.40
2019-03-13T09:13:46.768Z,93.20
2019-03-13T09:16:19.677Z,93.20
2019-03-13T09:18:49.549Z,92.50
2019-03-13T09:21:22.604Z,92.40
2019-03-13T09:24:07.948Z,92.00
2019-03-13T09:26:44.287Z,92.00
2019-03-13T09:29:20.345Z,91.80
2019-03-13T09:31:59.771Z,90.80
2019-03-13T09:34:36.016Z,90.70
2019-03-13T09:37:12.491Z,90.90
2019-03-13T09:39:52.042Z,90.90
2019-03-13T09:42:38.677Z,91.60
2019-03-13T09:45:11.651Z,92.80
2019-03-13T09:47:44.639Z,92.00
2019-03-13T09:50:20.508Z,92.00
2019-03-13T09:52:53.534Z,91.70
2019-03-13T09:55:29.899Z,90.60
2019-03-13T09:58:16.450Z,91.00
2019-03-13T10:00:52.605Z,90.90
2019-03-13T10:03:22.969Z,90.30
2019-03-13T10:05:53.740Z,90.10
2019-03-13T10:08:26.832Z,90.40
2019-03-13T10:11:09.587Z,90.30
2019-03-13T10:13:52.043Z,88.70
2019-03-13T10:16:22.536Z,89.10
2019-03-13T10:19:04.754Z,88.50
2019-03-13T10:21:35.158Z,87.00
2019-03-13T10:24:05.533Z,88.80
2019-03-13T10:26:35.947Z,86.30
2019-03-13T10:29:06.343Z,86.80
2019-03-13T10:31:48.706Z,87.50
2019-03-13T10:34:19.067Z,86.40
2019-03-13T10:37:05.648Z,86.40
2019-03-13T10:39:46.127Z,86.20
2019-03-13T10:42:22.433Z,86.70
2019-03-13T10:44:52.841Z,86.40
2019-03-13T10:47:29.294Z,86.60
2019-03-13T10:50:02.715Z,84.60
2019-03-13T10:52:33.122Z,86.10
2019-03-13T10:55:09.366Z,85.10
2019-03-13T10:57:51.282Z,85.20
2019-03-13T11:00:21.696Z,84.80
2019-03-13T11:03:08.431Z,84.40
2019-03-13T11:05:41.433Z,84.50
2019-03-13T11:08:11.846Z,84.20
2019-03-13T11:10:44.975Z,85.00
2019-03-13T11:13:15.431Z,82.40
2019-03-13T11:16:02.113Z,83.70
2019-03-13T11:18:48.865Z,84.40
2019-03-13T11:21:31.189Z,83.60
2019-03-13T11:24:16.526Z,83.70
2019-03-13T11:26:47.344Z,81.70
2019-03-13T11:29:20.512Z,83.40
2019-03-13T11:32:06.931Z,83.00
2019-03-13T11:34:46.237Z,83.40
2019-03-13T11:37:16.619Z,83.80
2019-03-13T11:39:55.690Z,84.70
2019-03-13T11:42:28.958Z,86.50
2019-03-13T11:44:59.326Z,83.40
2019-03-13T11:47:46.062Z,83.90
2019-03-13T11:50:25.467Z,83.90
2019-03-13T11:53:13.826Z,81.20
2019-03-13T11:55:44.901Z,82.50
2019-03-13T11:58:30.705Z,79.90
2019-03-13T12:01:18.757Z,80.40
2019-03-13T12:03:54.875Z,78.70
2019-03-13T12:06:25.387Z,79.40
2019-03-13T12:09:07.874Z,81.60
2019-03-13T12:11:50.347Z,80.90
2019-03-13T12:14:20.767Z,80.90
2019-03-13T12:17:07.557Z,82.70
2019-03-13T12:19:54.312Z,83.10
2019-03-13T12:22:29.123Z,80.90
2019-03-13T12:25:16.036Z,81.60
2019-03-13T12:27:46.755Z,81.80
2019-03-13T12:30:20.642Z,83.00
2019-03-13T12:32:56.774Z,81.70
2019-03-13T12:35:27.187Z,81.10
2019-03-13T12:38:00.027Z,80.00
2019-03-13T12:40:33.527Z,80.50
2019-03-13T12:43:20.495Z,79.70
2019-03-13T12:46:07.665Z,77.00
2019-03-13T12:48:40.917Z,77.10
2019-03-13T12:51:23.377Z,78.00
2019-03-13T12:54:05.590Z,75.70
2019-03-13T12:56:35.998Z,75.60
2019-03-13T12:59:18.204Z,74.80
2019-03-13T13:01:48.680Z,76.70
2019-03-13T13:04:34.405Z,74.60
2019-03-13T13:07:19.640Z,81.10
2019-03-13T13:10:05.219Z,84.60
2019-03-13T13:12:51.543Z,85.70
2019-03-13T13:15:24.868Z,90.10
2019-03-13T13:17:57.829Z,90.10
2019-03-13T13:20:26.680Z,91.50
2019-03-13T13:22:55.478Z,91.10
2019-03-13T13:25:24.335Z,92.20
2019-03-13T13:27:53.138Z,90.40
2019-03-13T13:30:21.980Z,87.60
2019-03-13T13:32:50.791Z,85.40
2019-03-13T13:35:21.589Z,86.30
2019-03-13T13:37:50.378Z,84.40
2019-03-13T13:40:19.551Z,83.20
2019-03-13T13:42:48.348Z,83.80
2019-03-13T13:45:33.261Z,81.60
2019-03-13T13:48:02.864Z,79.00
2019-03-13T13:50:32.014Z,80.50
2019-03-13T13:53:00.883Z,80.10
2019-03-13T13:55:29.702Z,80.10
2019-03-13T13:58:00.485Z,82.20
2019-03-13T14:00:28.987Z,79.10
2019-03-13T14:02:57.840Z,79.40
2019-03-13T14:05:26.657Z,79.50
2019-03-13T14:07:55.455Z,87.40
2019-03-13T14:10:24.302Z,91.10
2019-03-13T14:12:53.104Z,92.70
2019-03-13T14:15:21.928Z,93.60
2019-03-13T14:17:52.347Z,94.50
2019-03-13T14:20:21.161Z,94.60
2019-03-13T14:22:50.939Z,95.20
2019-03-13T14:25:19.739Z,96.20
2019-03-13T14:27:48.602Z,94.70
2019-03-13T14:30:21.820Z,93.00
2019-03-13T14:32:51.018Z,92.90
2019-03-13T14:35:20.101Z,93.00
2019-03-13T14:37:48.937Z,93.50
2019-03-13T14:40:19.170Z,93.00
2019-03-13T14:42:48.617Z,92.40
2019-03-13T14:45:20.674Z,91.70
2019-03-13T14:48:08.941Z,92.10
2019-03-13T14:50:37.769Z,91.40
2019-03-13T14:53:06.568Z,92.80
2019-03-13T14:55:35.802Z,92.60
2019-03-13T14:58:04.596Z,91.80
2019-03-13T15:00:33.449Z,91.60
2019-03-13T15:03:04.152Z,91.50
2019-03-13T15:05:32.876Z,91.20
2019-03-13T15:08:01.697Z,91.50
2019-03-13T15:10:31.746Z,91.00
2019-03-13T15:13:00.517Z,90.10
2019-03-13T15:15:29.360Z,90.80
2019-03-13T15:17:58.471Z,90.60
2019-03-13T15:20:28.856Z,88.80
2019-03-13T15:22:57.704Z,87.90
2019-03-13T15:25:26.510Z,89.00
2019-03-13T15:27:56.757Z,85.70
2019-03-13T15:30:27.094Z,86.70
2019-03-13T15:32:55.878Z,84.60
2019-03-13T15:35:24.711Z,85.10
2019-03-13T15:37:53.519Z,85.50
2019-03-13T15:40:22.273Z,85.70
2019-03-13T15:42:51.071Z,85.30
2019-03-13T15:45:32.506Z,84.20
2019-03-13T15:48:01.315Z,84.40
2019-03-13T15:50:30.175Z,86.00
2019-03-13T15:52:58.989Z,87.50
2019-03-13T15:55:28.091Z,87.90
2019-03-13T15:57:56.940Z,88.00
2019-03-13T16:00:27.056Z,87.90
2019-03-13T16:02:56.172Z,87.80
2019-03-13T16:05:25.121Z,87.90
2019-03-13T16:07:53.925Z,89.20
2019-03-13T16:10:22.840Z,88.80
2019-03-13T16:12:53.161Z,88.10
2019-03-13T16:15:24.981Z,87.90
2019-03-13T16:17:53.819Z,87.90
2019-03-13T16:20:24.190Z,87.70
2019-03-13T16:23:02.638Z,88.00
2019-03-13T16:25:32.048Z,89.20
2019-03-13T16:28:00.876Z,88.90
2019-03-13T16:30:40.391Z,90.00
2019-03-13T16:33:09.226Z,90.20
2019-03-13T16:35:39.418Z,89.80
2019-03-13T16:38:08.174Z,90.50
2019-03-13T16:40:37.016Z,90.40
2019-03-13T16:43:06.660Z,90.00
2019-03-13T16:45:35.460Z,90.00
2019-03-13T16:48:04.410Z,90.00
2019-03-13T16:50:34.824Z,90.30
2019-03-13T16:53:03.863Z,89.50
2019-03-13T16:55:32.690Z,89.30
2019-03-13T16:58:01.540Z,89.30
2019-03-13T17:00:32.608Z,89.40
2019-03-13T17:03:01.461Z,89.90
2019-03-13T17:05:30.384Z,89.80
2019-03-13T17:07:59.175Z,89.50
2019-03-13T17:10:29.004Z,89.30
2019-03-13T17:12:58.307Z,89.60
2019-03-13T17:15:27.748Z,88.60
2019-03-13T17:17:56.982Z,89.40
2019-03-13T17:20:35.304Z,89.10
2019-03-13T17:23:04.279Z,88.90
2019-03-13T17:25:34.418Z,89.50
2019-03-13T17:28:04.464Z,89.20
2019-03-13T17:30:33.575Z,89.70
2019-03-13T17:33:02.631Z,89.30
2019-03-13T17:35:32.779Z,89.50
2019-03-13T17:38:01.595Z,88.20
2019-03-13T17:40:31.520Z,88.10
2019-03-13T17:43:00.359Z,87.80
2019-03-13T17:45:30.136Z,87.60
2019-03-13T17:47:59.390Z,87.40
2019-03-13T17:50:28.626Z,87.40
2019-03-13T17:52:57.805Z,87.60
2019-03-13T17:55:27.452Z,87.40
2019-03-13T17:57:56.246Z,87.50
2019-03-13T18:00:49.939Z,86.70
2019-03-13T18:03:19.236Z,86.60
2019-03-13T18:05:48.079Z,86.80
2019-03-13T18:08:17.024Z,86.70
2019-03-13T18:10:45.883Z,86.20
2019-03-13T18:13:14.686Z,86.90
2019-03-13T18:15:43.520Z,86.60
2019-03-13T18:18:12.593Z,86.80
2019-03-13T18:20:41.420Z,87.60
2019-03-13T18:23:10.246Z,87.50
2019-03-13T18:25:39.090Z,87.30
2019-03-13T18:28:07.902Z,87.70
2019-03-13T18:30:37.257Z,88.00
2019-03-13T18:33:06.452Z,88.20
2019-03-13T18:35:36.217Z,88.80
2019-03-13T18:38:05.122Z,88.90
2019-03-13T18:40:33.954Z,89.20
2019-03-13T18:43:02.725Z,89.40
2019-03-13T18:45:33.831Z,88.90
2019-03-13T18:48:04.101Z,89.00
2019-03-13T18:50:32.875Z,89.20
2019-03-13T18:53:03.099Z,90.10
2019-03-13T18:55:33.981Z,89.70
2019-03-13T18:58:02.813Z,89.80
2019-03-13T19:00:34.473Z,90.10
2019-03-13T19:03:03.729Z,90.10
2019-03-13T19:05:35.192Z,90.40
2019-03-13T19:08:04.225Z,90.70
2019-03-13T19:10:33.535Z,90.60
2019-03-13T19:13:05.997Z,90.70
2019-03-13T19:15:40.164Z,90.90
2019-03-13T19:18:12.289Z,90.70
2019-03-13T19:20:42.042Z,90.70
2019-03-13T19:23:14.557Z,90.70
2019-03-13T19:25:47.946Z,90.70
2019-03-13T19:28:17.143Z,91.00
2019-03-13T19:30:47.356Z,90.50
2019-03-13T19:33:18.183Z,90.70
2019-03-13T19:35:51.795Z,90.70
2019-03-13T19:38:22.316Z,90.90
2019-03-13T19:40:52.544Z,91.10
2019-03-13T19:43:24.247Z,90.70
2019-03-13T19:45:55.457Z,90.60
2019-03-13T19:48:26.725Z,90.60
2019-03-13T19:50:57.234Z,90.20
2019-03-13T19:53:30.474Z,90.60
2019-03-13T19:56:01.722Z,90.50
2019-03-13T19:58:32.105Z,90.00
2019-03-13T20:01:05.476Z,90.00
2019-03-13T20:03:37.702Z,90.00
2019-03-13T20:06:09.011Z,90.10
2019-03-13T20:08:40.310Z,90.30
2019-03-13T20:11:09.610Z,90.10
2019-03-13T20:13:38.821Z,89.80
2019-03-13T20:16:08.045Z,89.40
2019-03-13T20:18:37.439Z,90.00
2019-03-13T20:21:07.384Z,89.80
2019-03-13T20:23:37.815Z,90.10
2019-03-13T20:26:09.063Z,89.80
2019-03-13T20:28:38.135Z,89.90
2019-03-13T20:31:13.560Z,89.60
2019-03-13T20:33:44.645Z,89.10
2019-03-13T20:36:15.326Z,88.80
2019-03-13T20:38:47.398Z,89.20
2019-03-13T20:41:20.807Z,89.10
2019-03-13T20:43:51.160Z,89.30
2019-03-13T20:46:22.171Z,89.90
2019-03-13T20:48:54.859Z,90.10
2019-03-13T20:51:28.909Z,89.80
2019-03-13T20:54:01.690Z,89.80
2019-03-13T20:56:37.616Z,90.00
2019-03-13T20:59:09.657Z,90.10
2019-03-13T21:01:42.232Z,90.30
2019-03-13T21:04:13.069Z,90.20
2019-03-13T21:06:44.495Z,89.80
2019-03-13T21:09:14.673Z,90.00
2019-03-13T21:11:45.821Z,89.90
2019-03-13T21:14:17.908Z,89.70
2019-03-13T21:16:49.241Z,89.60
2019-03-13T21:19:21.073Z,89.10
2019-03-13T21:21:56.666Z,89.00
2019-03-13T21:24:38.574Z,89.00
2019-03-13T21:27:11.209Z,88.60
2019-03-13T21:29:42.775Z,88.70
2019-03-13T21:32:14.086Z,88.00
2019-03-13T21:34:47.377Z,87.80
2019-03-13T21:37:20.220Z,87.80
2019-03-13T21:39:52.668Z,87.30
2019-03-13T21:42:22.106Z,88.40
2019-03-13T21:44:56.100Z,89.30
2019-03-13T21:47:25.195Z,90.10
2019-03-13T21:49:57.251Z,90.60
2019-03-13T21:52:27.737Z,90.60
2019-03-13T21:54:56.978Z,91.00
2019-03-13T21:57:26.786Z,91.30
2019-03-13T21:59:59.163Z,92.00
2019-03-13T22:02:33.909Z,92.20
2019-03-13T22:05:03.956Z,92.40
2019-03-13T22:07:50.504Z,92.90
2019-03-13T22:10:23.382Z,93.10
2019-03-13T22:12:54.820Z,93.50
2019-03-13T22:15:24.717Z,93.80
2019-03-13T22:17:55.742Z,93.50
2019-03-13T22:20:26.160Z,93.70
2019-03-13T22:22:57.068Z,94.30
2019-03-13T22:25:31.810Z,94.40
2019-03-13T22:28:04.918Z,94.40
2019-03-13T22:30:37.115Z,94.50
2019-03-13T22:33:07.898Z,94.50
2019-03-13T22:35:39.980Z,94.70
2019-03-13T22:38:08.927Z,94.90
2019-03-13T22:40:50.449Z,94.60
2019-03-13T22:43:22.044Z,94.80
2019-03-13T22:45:51.791Z,94.90
2019-03-13T22:48:23.158Z,95.10
2019-03-13T22:50:55.565Z,94.90
2019-03-13T22:53:24.557Z,95.20
2019-03-13T22:55:54.636Z,95.20
2019-03-13T22:58:25.217Z,95.40
2019-03-13T23:01:02.906Z,95.80
2019-03-13T23:03:35.114Z,95.50
2019-03-13T23:06:07.986Z,96.00
2019-03-13T23:08:40.910Z,96.00
2019-03-13T23:11:13.755Z,96.10
2019-03-13T23:13:46.149Z,96.10
2019-03-13T23:16:19.650Z,96.30
2019-03-13T23:18:49.794Z,96.30
2019-03-13T23:21:21.814Z,96.30
2019-03-13T23:23:54.267Z,96.40
2019-03-13T23:26:34.541Z,96.20
2019-03-13T23:29:08.009Z,96.30
2019-03-13T23:31:37.584Z,96.40
2019-03-13T23:34:08.899Z,96.30
2019-03-13T23:36:41.956Z,96.50
2019-03-13T23:39:11.379Z,96.50
2019-03-13T23:41:42.631Z,96.50
2019-03-13T23:44:12.312Z,96.60
2019-03-13T23:46:42.850Z,96.80
2019-03-13T23:52:06.250Z,96.70
2019-03-13T23:54:36.984Z,96.90
2019-03-13T23:57:07.387Z,96.70
2019-03-13T23:59:40.940Z,96.80
